Surfer 226 — FNNH — position and weather

sailwx.info

Track history (hours):
 
Tides and Currents Weather Stations Pressure Air Temp Water Temp Dewpoint Dewpoint Depression Visibility Wind Speed Wind Dir Waves Ship Positions

Surfer 226

Last reported at 2017-Sep-14 15:55 UTC. Time now 2017-Sep-20 23:39 UTC.
Position S 05°02' E 011°36'.

Length 22 m; draft 1 m.

MMSI: 635016400.

Date/timePositionNaut miles runAvg speedWind from/ knotsBaromVisibWave heightAir tempDewpointWater temp
2017-Sep-14 15:55S 05°02' E 011°36'921.7
2017-Sep-14 15:29S 05°09' E 011°30'1021.1
2017-Sep-14 15:00S 05°17' E 011°23'0 0.5
2017-Sep-14 14:30S 05°17' E 011°23'1 2.9
2017-Sep-14 14:00S 05°17' E 011°25'0 0.0
2017-Sep-14 13:29S 05°17' E 011°25'0 0.0
2017-Sep-14 13:00S 05°17' E 011°25'0 0.0
2017-Sep-14 12:30S 05°17' E 011°25'0 0.0
2017-Sep-14 12:00S 05°17' E 011°25'0 0.0
2017-Sep-14 11:29S 05°17' E 011°25'0 0.0
2017-Sep-14 11:00S 05°17' E 011°25'0 0.0
2017-Sep-14 10:30S 05°17' E 011°25'0 0.0
2017-Sep-14 09:59S 05°17' E 011°25'0 0.0
2017-Sep-14 09:30S 05°17' E 011°25'0 0.0
2017-Sep-14 09:00S 05°17' E 011°25'0 0.0
2017-Sep-14 08:30S 05°17' E 011°25'0 0.1
2017-Sep-14 07:59S 05°17' E 011°25'2 3.1
2017-Sep-14 07:30S 05°17' E 011°23'1019.5
2017-Sep-14 07:00S 05°09' E 011°29'10 0.6
2017-Sep-13 15:23S 05°02' E 011°36'820.6
2017-Sep-13 15:00S 05°08' E 011°31'1019.8
2017-Sep-13 14:30S 05°16' E 011°25'2 4.6
2017-Sep-13 14:00S 05°17' E 011°23'0 0.6
2017-Sep-13 13:30S 05°17' E 011°23'2 3.4
2017-Sep-13 13:00S 05°19' E 011°23'0 0.0
2017-Sep-13 12:30S 05°19' E 011°23'0 0.1
2017-Sep-13 12:00S 05°19' E 011°23'0 0.1
2017-Sep-13 11:29S 05°19' E 011°23'0 0.1
2017-Sep-13 11:00S 05°19' E 011°23'2 3.8
2017-Sep-13 10:30S 05°17' E 011°24'0 0.7
2017-Sep-13 10:00S 05°17' E 011°23'3 6.0
2017-Sep-13 09:30S 05°15' E 011°25'918.4
2017-Sep-13 09:00S 05°07' E 011°31'8 0.4
2017-Sep-12 14:02S 05°14' E 011°35'216.6
2017-Sep-12 13:54S 05°16' E 011°34'511.4
2017-Sep-12 13:30S 05°19' E 011°30'510.1
2017-Sep-12 13:00S 05°23' E 011°27'1 2.5
2017-Sep-12 12:30S 05°22' E 011°26'1 2.4
2017-Sep-12 12:00S 05°23' E 011°27'1 2.0
2017-Sep-12 11:24S 05°22' E 011°26'2 4.9
2017-Sep-12 11:00S 05°20' E 011°25'2 3.8
2017-Sep-12 10:30S 05°18' E 011°24'510.1
2017-Sep-12 10:00S 05°23' E 011°27'816.3
2017-Sep-12 09:30S 05°16' E 011°30'  
Track history (hours):
 
Tides and Currents Weather Stations Pressure Air Temp Water Temp Dewpoint Dewpoint Depression Visibility Wind Speed Wind Dir Waves Ship Positions

Surfer 226

Last reported at 2017-Sep-14 15:55 UTC. Time now 2017-Sep-20 23:39 UTC.
Position S 05°02' E 011°36'.

Length 22 m; draft 1 m.

MMSI: 635016400.

Date/timePositionNaut miles runAvg speedWind from/ knotsBaromVisibWave heightAir tempDewpointWater temp
2017-Sep-14 15:55S 05°02' E 011°36'921.7
2017-Sep-14 15:29S 05°09' E 011°30'1021.1
2017-Sep-14 15:00S 05°17' E 011°23'0 0.5
2017-Sep-14 14:30S 05°17' E 011°23'1 2.9
2017-Sep-14 14:00S 05°17' E 011°25'0 0.0
2017-Sep-14 13:29S 05°17' E 011°25'0 0.0
2017-Sep-14 13:00S 05°17' E 011°25'0 0.0
2017-Sep-14 12:30S 05°17' E 011°25'0 0.0
2017-Sep-14 12:00S 05°17' E 011°25'0 0.0
2017-Sep-14 11:29S 05°17' E 011°25'0 0.0
2017-Sep-14 11:00S 05°17' E 011°25'0 0.0
2017-Sep-14 10:30S 05°17' E 011°25'0 0.0
2017-Sep-14 09:59S 05°17' E 011°25'0 0.0
2017-Sep-14 09:30S 05°17' E 011°25'0 0.0
2017-Sep-14 09:00S 05°17' E 011°25'0 0.0
2017-Sep-14 08:30S 05°17' E 011°25'0 0.1
2017-Sep-14 07:59S 05°17' E 011°25'2 3.1
2017-Sep-14 07:30S 05°17' E 011°23'1019.5
2017-Sep-14 07:00S 05°09' E 011°29'10 0.6
2017-Sep-13 15:23S 05°02' E 011°36'820.6
2017-Sep-13 15:00S 05°08' E 011°31'1019.8
2017-Sep-13 14:30S 05°16' E 011°25'2 4.6
2017-Sep-13 14:00S 05°17' E 011°23'0 0.6
2017-Sep-13 13:30S 05°17' E 011°23'2 3.4
2017-Sep-13 13:00S 05°19' E 011°23'0 0.0
2017-Sep-13 12:30S 05°19' E 011°23'0 0.1
2017-Sep-13 12:00S 05°19' E 011°23'0 0.1
2017-Sep-13 11:29S 05°19' E 011°23'0 0.1
2017-Sep-13 11:00S 05°19' E 011°23'2 3.8
2017-Sep-13 10:30S 05°17' E 011°24'0 0.7
2017-Sep-13 10:00S 05°17' E 011°23'3 6.0
2017-Sep-13 09:30S 05°15' E 011°25'918.4
2017-Sep-13 09:00S 05°07' E 011°31'8 0.4
2017-Sep-12 14:02S 05°14' E 011°35'216.6
2017-Sep-12 13:54S 05°16' E 011°34'511.4
2017-Sep-12 13:30S 05°19' E 011°30'510.1
2017-Sep-12 13:00S 05°23' E 011°27'1 2.5
2017-Sep-12 12:30S 05°22' E 011°26'1 2.4
2017-Sep-12 12:00S 05°23' E 011°27'1 2.0
2017-Sep-12 11:24S 05°22' E 011°26'2 4.9
2017-Sep-12 11:00S 05°20' E 011°25'2 3.8
2017-Sep-12 10:30S 05°18' E 011°24'510.1
2017-Sep-12 10:00S 05°23' E 011°27'816.3
2017-Sep-12 09:30S 05°16' E 011°30'  

Dump ship's entire track history